createdAt,value
2023-01-09T00:00:05.063Z,994.91
2023-01-09T00:01:04.990Z,994.94
2023-01-09T00:02:05.030Z,994.90
2023-01-09T00:03:04.972Z,994.86
2023-01-09T00:04:05.137Z,994.74
2023-01-09T00:05:04.943Z,994.75
2023-01-09T00:06:04.938Z,994.81
2023-01-09T00:07:04.927Z,994.81
2023-01-09T00:08:04.897Z,994.77
2023-01-09T00:09:08.749Z,994.70
2023-01-09T00:10:04.914Z,994.75
2023-01-09T00:11:04.853Z,994.71
2023-01-09T00:12:04.890Z,994.65
2023-01-09T00:13:04.853Z,994.60
2023-01-09T00:14:04.813Z,994.49
2023-01-09T00:15:04.899Z,994.50
2023-01-09T00:16:04.797Z,994.60
2023-01-09T00:17:04.869Z,994.53
2023-01-09T00:18:04.781Z,994.56
2023-01-09T00:19:04.807Z,994.59
2023-01-09T00:20:04.758Z,994.57
2023-01-09T00:21:04.738Z,994.58
2023-01-09T00:22:04.725Z,994.54
2023-01-09T00:23:04.735Z,994.53
2023-01-09T00:24:04.687Z,994.54
2023-01-09T00:25:04.681Z,994.52
2023-01-09T00:26:04.683Z,994.48
2023-01-09T00:27:04.660Z,994.50
2023-01-09T00:28:04.663Z,994.46
2023-01-09T00:29:04.647Z,994.44
2023-01-09T00:30:04.605Z,994.44
2023-01-09T00:31:04.644Z,994.49
2023-01-09T00:32:04.613Z,994.42
2023-01-09T00:33:04.568Z,994.47
2023-01-09T00:34:04.549Z,994.42
2023-01-09T00:35:04.540Z,994.53
2023-01-09T00:36:04.524Z,994.42
2023-01-09T00:37:04.510Z,994.45
2023-01-09T00:38:04.488Z,994.42
2023-01-09T00:39:04.510Z,994.36
2023-01-09T00:40:04.479Z,994.42
2023-01-09T00:41:04.444Z,994.51
2023-01-09T00:42:04.453Z,994.43
2023-01-09T00:43:04.421Z,994.39
2023-01-09T00:44:04.454Z,994.42
2023-01-09T00:45:04.452Z,994.42
2023-01-09T00:46:04.458Z,994.43
2023-01-09T00:47:04.360Z,994.45
2023-01-09T00:48:04.365Z,994.44
2023-01-09T00:49:04.334Z,994.39
2023-01-09T00:50:04.384Z,994.44
2023-01-09T00:51:04.323Z,994.40
2023-01-09T00:52:04.322Z,994.36
2023-01-09T00:53:04.309Z,994.43
2023-01-09T00:54:04.272Z,994.48
2023-01-09T00:55:04.279Z,994.45
2023-01-09T00:56:04.250Z,994.49
2023-01-09T00:57:08.211Z,994.46
2023-01-09T00:58:04.304Z,994.48
2023-01-09T00:59:04.262Z,994.48
2023-01-09T01:00:04.201Z,994.47
2023-01-09T01:01:04.279Z,994.42
2023-01-09T01:02:04.307Z,994.43
2023-01-09T01:03:04.214Z,994.37
2023-01-09T01:04:04.155Z,994.43
2023-01-09T01:05:04.131Z,994.38
2023-01-09T01:06:04.184Z,994.34
2023-01-09T01:07:04.114Z,994.33
2023-01-09T01:08:04.109Z,994.42
2023-01-09T01:09:04.085Z,994.37
2023-01-09T01:10:04.174Z,994.34
2023-01-09T01:11:04.063Z,994.34
2023-01-09T01:12:04.036Z,994.31
2023-01-09T01:13:04.055Z,994.32
2023-01-09T01:14:04.029Z,994.31
2023-01-09T01:15:03.998Z,994.23
2023-01-09T01:16:04.033Z,994.29
2023-01-09T01:17:04.032Z,994.28
2023-01-09T01:18:03.963Z,994.21
2023-01-09T01:19:03.947Z,994.25
2023-01-09T01:20:03.967Z,994.28
2023-01-09T01:21:03.946Z,994.30
2023-01-09T01:22:04.039Z,994.36
2023-01-09T01:23:03.904Z,994.38
2023-01-09T01:24:03.879Z,994.31
2023-01-09T01:25:03.889Z,994.29
2023-01-09T01:26:03.867Z,994.32
2023-01-09T01:27:03.927Z,994.33
2023-01-09T01:28:03.823Z,994.29
2023-01-09T01:29:03.809Z,994.24
2023-01-09T01:30:03.817Z,994.24
2023-01-09T01:31:03.871Z,994.22
2023-01-09T01:32:03.779Z,994.23
2023-01-09T01:33:03.760Z,994.20
2023-01-09T01:34:03.742Z,994.22
2023-01-09T01:35:03.746Z,994.15
2023-01-09T01:36:03.813Z,994.14
2023-01-09T01:37:03.695Z,994.14
2023-01-09T01:38:03.700Z,994.14
2023-01-09T01:39:03.713Z,994.20
2023-01-09T01:40:03.697Z,994.17
2023-01-09T01:41:03.664Z,994.14
2023-01-09T01:42:03.697Z,994.13
2023-01-09T01:43:03.703Z,994.19
2023-01-09T01:44:03.635Z,994.09
2023-01-09T01:45:03.598Z,994.17
2023-01-09T01:46:03.693Z,994.11
2023-01-09T01:47:03.561Z,994.20
2023-01-09T01:48:03.589Z,994.15
2023-01-09T01:49:03.538Z,994.11
2023-01-09T01:50:03.567Z,994.13
2023-01-09T01:51:03.549Z,994.10
2023-01-09T01:52:03.524Z,994.09
2023-01-09T01:53:03.494Z,994.07
2023-01-09T01:54:03.499Z,994.04
2023-01-09T01:55:03.530Z,994.00
2023-01-09T01:56:03.475Z,994.01
2023-01-09T01:57:03.450Z,994.03
2023-01-09T01:58:03.492Z,994.05
2023-01-09T01:59:03.431Z,993.99
2023-01-09T02:00:03.409Z,993.91
2023-01-09T02:01:03.543Z,993.93
2023-01-09T02:02:03.576Z,993.90
2023-01-09T02:03:03.421Z,993.88
2023-01-09T02:04:03.388Z,993.87
2023-01-09T02:05:03.338Z,993.76
2023-01-09T02:06:03.336Z,993.78
2023-01-09T02:07:03.314Z,993.83
2023-01-09T02:08:03.321Z,993.70
2023-01-09T02:09:03.273Z,993.71
2023-01-09T02:10:03.269Z,993.76
2023-01-09T02:11:03.269Z,993.72
2023-01-09T02:12:03.276Z,993.72
2023-01-09T02:13:03.222Z,993.74
2023-01-09T02:14:03.263Z,993.67
2023-01-09T02:15:03.330Z,993.69
2023-01-09T02:16:03.251Z,993.78
2023-01-09T02:17:03.208Z,993.84
2023-01-09T02:18:03.165Z,993.77
2023-01-09T02:19:03.239Z,993.83
2023-01-09T02:20:03.130Z,993.80
2023-01-09T02:21:03.136Z,993.77
2023-01-09T02:22:03.149Z,993.74
2023-01-09T02:23:03.121Z,993.78
2023-01-09T02:24:03.095Z,993.73
2023-01-09T02:25:03.065Z,993.68
2023-01-09T02:26:03.058Z,993.65
2023-01-09T02:27:03.088Z,993.69
2023-01-09T02:28:03.071Z,993.66
2023-01-09T02:29:03.023Z,993.69
2023-01-09T02:30:03.008Z,993.65
2023-01-09T02:31:02.998Z,993.64
2023-01-09T02:32:02.991Z,993.60
2023-01-09T02:33:02.996Z,993.63
2023-01-09T02:34:03.000Z,993.62
2023-01-09T02:35:02.943Z,993.62
2023-01-09T02:36:02.944Z,993.64
2023-01-09T02:37:02.930Z,993.60
2023-01-09T02:38:02.896Z,993.65
2023-01-09T02:39:02.880Z,993.50
2023-01-09T02:40:02.913Z,993.53
2023-01-09T02:41:02.874Z,993.54
2023-01-09T02:42:02.858Z,993.50
2023-01-09T02:43:02.898Z,993.54
2023-01-09T02:44:02.825Z,993.50
2023-01-09T02:45:02.802Z,993.58
2023-01-09T02:46:02.860Z,993.52
2023-01-09T02:47:02.802Z,993.49
2023-01-09T02:48:02.824Z,993.57
2023-01-09T02:49:02.811Z,993.48
2023-01-09T02:50:02.754Z,993.48
2023-01-09T02:51:02.739Z,993.52
2023-01-09T02:52:02.715Z,993.49
2023-01-09T02:53:02.759Z,993.47
2023-01-09T02:54:02.689Z,993.50
2023-01-09T02:55:02.679Z,993.49
2023-01-09T02:56:02.663Z,993.52
2023-01-09T02:57:02.675Z,993.51
2023-01-09T02:58:02.652Z,993.48
2023-01-09T02:59:02.627Z,993.47
2023-01-09T03:00:02.626Z,993.45
2023-01-09T03:01:02.689Z,993.50
2023-01-09T03:02:02.721Z,993.49
2023-01-09T03:03:02.621Z,993.50
2023-01-09T03:04:02.566Z,993.47
2023-01-09T03:05:02.539Z,993.53
2023-01-09T03:06:02.541Z,993.50
2023-01-09T03:07:02.548Z,993.51
2023-01-09T03:08:02.532Z,993.45
2023-01-09T03:09:02.501Z,993.43
2023-01-09T03:10:02.467Z,993.45
2023-01-09T03:11:02.496Z,993.51
2023-01-09T03:12:02.470Z,993.46
2023-01-09T03:13:02.483Z,993.49
2023-01-09T03:14:02.420Z,993.44
2023-01-09T03:15:02.405Z,993.37
2023-01-09T03:16:02.505Z,993.44
2023-01-09T03:17:02.387Z,993.44
2023-01-09T03:18:02.388Z,993.44
2023-01-09T03:19:02.356Z,993.43
2023-01-09T03:20:02.489Z,993.39
2023-01-09T03:21:02.332Z,993.37
2023-01-09T03:22:02.339Z,993.42
2023-01-09T03:23:02.330Z,993.46
2023-01-09T03:24:02.427Z,993.46
2023-01-09T03:25:02.275Z,993.51
2023-01-09T03:26:02.257Z,993.44
2023-01-09T03:27:02.268Z,993.46
2023-01-09T03:28:02.276Z,993.48
2023-01-09T03:29:02.248Z,993.42
2023-01-09T03:30:02.243Z,993.39
2023-01-09T03:31:02.216Z,993.43
2023-01-09T03:32:02.189Z,993.46
2023-01-09T03:33:02.187Z,993.46
2023-01-09T03:34:02.150Z,993.44
2023-01-09T03:35:02.147Z,993.52
2023-01-09T03:36:02.165Z,993.51
2023-01-09T03:37:02.122Z,993.42
2023-01-09T03:38:02.130Z,993.47
2023-01-09T03:39:02.165Z,993.47
2023-01-09T03:40:02.087Z,993.55
2023-01-09T03:41:02.080Z,993.50
2023-01-09T03:42:02.064Z,993.49
2023-01-09T03:43:02.056Z,993.47
2023-01-09T03:44:02.072Z,993.53
2023-01-09T03:45:02.047Z,993.52
2023-01-09T03:46:02.075Z,993.48
2023-01-09T03:47:02.021Z,993.48
2023-01-09T03:48:02.027Z,993.46
2023-01-09T03:49:02.009Z,993.47
2023-01-09T03:50:01.976Z,993.40
2023-01-09T03:51:01.939Z,993.48
2023-01-09T03:52:01.926Z,993.44
2023-01-09T03:53:01.928Z,993.49
2023-01-09T03:54:01.926Z,993.50
2023-01-09T03:55:01.953Z,993.50
2023-01-09T03:56:01.899Z,993.51
2023-01-09T03:57:01.869Z,993.49
2023-01-09T03:58:01.849Z,993.54
2023-01-09T03:59:01.849Z,993.47
2023-01-09T04:00:01.870Z,993.43
2023-01-09T04:01:02.037Z,993.51
2023-01-09T04:02:03.825Z,993.55
2023-01-09T04:03:01.795Z,993.53
2023-01-09T04:04:01.816Z,993.52
2023-01-09T04:05:01.783Z,993.54
2023-01-09T04:06:01.746Z,993.48
2023-01-09T04:07:01.749Z,993.51
2023-01-09T04:08:01.727Z,993.47
2023-01-09T04:09:01.741Z,993.42
2023-01-09T04:10:01.724Z,993.48
2023-01-09T04:11:01.702Z,993.42
2023-01-09T04:12:01.678Z,993.44
2023-01-09T04:13:01.660Z,993.43
2023-01-09T04:14:01.705Z,993.45
2023-01-09T04:15:01.652Z,993.39
2023-01-09T04:16:01.644Z,993.34
2023-01-09T04:17:01.624Z,993.32
2023-01-09T04:18:01.588Z,993.29
2023-01-09T04:19:01.644Z,993.35
2023-01-09T04:20:01.611Z,993.31
2023-01-09T04:21:01.593Z,993.37
2023-01-09T04:22:01.527Z,993.32
2023-01-09T04:23:01.539Z,993.29
2023-01-09T04:24:01.510Z,993.32
2023-01-09T04:25:01.503Z,993.31
2023-01-09T04:26:01.488Z,993.35
2023-01-09T04:27:01.544Z,993.28
2023-01-09T04:28:01.453Z,993.24
2023-01-09T04:29:01.448Z,993.19
2023-01-09T04:30:01.447Z,993.25
2023-01-09T04:31:01.429Z,993.23
2023-01-09T04:32:01.424Z,993.26
2023-01-09T04:33:01.400Z,993.25
2023-01-09T04:34:01.390Z,993.24
2023-01-09T04:35:01.384Z,993.14
2023-01-09T04:36:01.413Z,993.17
2023-01-09T04:37:01.347Z,993.11
2023-01-09T04:38:01.335Z,993.14
2023-01-09T04:39:01.333Z,993.12
2023-01-09T04:40:01.319Z,993.10
2023-01-09T04:41:01.289Z,993.17
2023-01-09T04:42:01.302Z,993.12
2023-01-09T04:43:02.255Z,993.13
2023-01-09T04:44:01.252Z,993.16
2023-01-09T04:45:01.300Z,993.11
2023-01-09T04:46:01.282Z,993.16
2023-01-09T04:47:01.228Z,993.11
2023-01-09T04:48:01.186Z,993.08
2023-01-09T04:49:01.201Z,993.07
2023-01-09T04:50:01.235Z,993.13
2023-01-09T04:51:01.165Z,993.11
